createdAt,value
2019-04-01T00:01:44.232Z,21.37
2019-04-01T00:04:14.649Z,21.35
2019-04-01T00:06:44.983Z,21.37
2019-04-01T00:09:15.312Z,21.36
2019-04-01T00:11:45.621Z,21.37
2019-04-01T00:14:15.946Z,21.36
2019-04-01T00:16:46.228Z,21.35
2019-04-01T00:19:16.620Z,21.36
2019-04-01T00:21:46.931Z,21.36
2019-04-01T00:24:17.265Z,21.35
2019-04-01T00:26:47.587Z,21.34
2019-04-01T00:29:17.891Z,21.25
2019-04-01T00:31:48.263Z,21.28
2019-04-01T00:34:18.905Z,21.33
2019-04-01T00:36:49.181Z,21.26
2019-04-01T00:39:19.467Z,21.26
2019-04-01T00:42:05.119Z,21.24
2019-04-01T00:44:35.415Z,21.26
2019-04-01T00:47:05.668Z,21.20
2019-04-01T00:49:35.994Z,21.27
2019-04-01T00:52:06.272Z,21.23
2019-04-01T00:54:36.819Z,21.23
2019-04-01T00:57:07.068Z,21.22
2019-04-01T00:59:37.371Z,21.13
2019-04-01T01:02:07.649Z,21.14
2019-04-01T01:04:37.996Z,21.09
2019-04-01T01:07:08.264Z,21.11
2019-04-01T01:09:38.586Z,21.13
2019-04-01T01:12:08.886Z,21.15
2019-04-01T01:14:39.184Z,21.22
2019-04-01T01:17:09.477Z,21.19
2019-04-01T01:19:39.836Z,21.15
2019-04-01T01:22:10.131Z,21.14
2019-04-01T01:24:40.439Z,21.16
2019-04-01T01:29:39.793Z,21.14
2019-04-01T01:32:10.081Z,21.16
2019-04-01T01:34:40.327Z,21.18
2019-04-01T01:37:10.671Z,21.18
2019-04-01T01:39:40.931Z,21.17
2019-04-01T01:42:11.353Z,21.14
2019-04-01T01:44:44.368Z,21.11
2019-04-01T01:47:14.640Z,21.09
2019-04-01T01:49:44.904Z,21.08
2019-04-01T01:52:15.201Z,21.09
2019-04-01T01:54:45.524Z,21.12
2019-04-01T01:57:15.764Z,21.14
2019-04-01T01:59:46.030Z,21.13
2019-04-01T02:02:16.381Z,21.11
2019-04-01T02:04:46.735Z,21.12
2019-04-01T02:07:18.072Z,21.13
2019-04-01T02:09:48.434Z,21.14
2019-04-01T02:12:18.740Z,21.17
2019-04-01T02:14:49.013Z,21.18
2019-04-01T02:17:19.312Z,21.18
2019-04-01T02:19:49.549Z,21.15
2019-04-01T02:22:19.870Z,21.15
2019-04-01T02:24:50.081Z,21.12
2019-04-01T02:27:20.347Z,21.10
2019-04-01T02:29:50.717Z,21.11
2019-04-01T02:32:21.999Z,21.12
2019-04-01T02:34:52.317Z,21.13
2019-04-01T02:37:22.571Z,21.13
2019-04-01T02:39:52.912Z,21.09
2019-04-01T02:42:23.341Z,21.09
2019-04-01T02:44:53.646Z,21.06
2019-04-01T02:47:23.964Z,21.09
2019-04-01T02:49:54.287Z,21.15
2019-04-01T02:52:24.584Z,21.16
2019-04-01T02:57:23.890Z,21.14
2019-04-01T02:59:54.118Z,21.15
2019-04-01T03:02:24.495Z,21.12
2019-04-01T03:04:54.784Z,21.12
2019-04-01T03:07:25.068Z,21.18
2019-04-01T03:09:55.283Z,21.15
2019-04-01T03:12:25.598Z,21.16
2019-04-01T03:14:55.933Z,21.15
2019-04-01T03:17:26.155Z,21.07
2019-04-01T03:19:56.486Z,21.04
2019-04-01T03:22:26.762Z,21.04
2019-04-01T03:24:57.047Z,21.04
2019-04-01T03:27:27.331Z,21.00
2019-04-01T03:29:57.643Z,21.00
2019-04-01T03:32:28.271Z,21.01
2019-04-01T03:34:58.630Z,21.04
2019-04-01T03:37:28.884Z,21.05
2019-04-01T03:39:59.174Z,21.04
2019-04-01T03:42:29.469Z,21.05
2019-04-01T03:45:02.755Z,21.04
2019-04-01T03:47:33.104Z,21.04
2019-04-01T03:50:03.465Z,21.06
2019-04-01T03:52:33.762Z,21.07
2019-04-01T03:55:04.096Z,21.09
2019-04-01T03:57:34.698Z,21.08
2019-04-01T04:00:09.332Z,21.09
2019-04-01T04:02:39.600Z,21.11
2019-04-01T04:05:09.941Z,21.11
2019-04-01T04:07:40.208Z,21.11
2019-04-01T04:10:10.641Z,21.09
2019-04-01T04:12:40.915Z,21.11
2019-04-01T04:15:11.172Z,21.09
2019-04-01T04:17:41.481Z,21.10
2019-04-01T04:20:11.777Z,21.09
2019-04-01T04:22:42.042Z,21.08
2019-04-01T04:25:12.435Z,21.14
2019-04-01T04:27:42.709Z,21.16
2019-04-01T04:30:14.572Z,21.14
2019-04-01T04:32:44.833Z,21.14
2019-04-01T04:35:16.368Z,21.12
2019-04-01T04:37:46.668Z,21.18
2019-04-01T04:40:16.974Z,21.15
2019-04-01T04:42:48.372Z,21.10
2019-04-01T04:45:18.679Z,21.06
2019-04-01T04:47:48.951Z,21.13
2019-04-01T04:50:19.262Z,21.14
2019-04-01T04:52:51.974Z,21.14
2019-04-01T04:55:22.277Z,21.14
2019-04-01T04:57:52.611Z,21.06
2019-04-01T05:00:22.927Z,21.04
2019-04-01T05:02:54.203Z,21.04
2019-04-01T05:05:24.520Z,21.02
2019-04-01T05:07:55.141Z,21.04
2019-04-01T05:10:25.457Z,21.12
2019-04-01T05:12:55.784Z,21.11
2019-04-01T05:15:27.120Z,21.08
2019-04-01T05:18:02.936Z,21.10
2019-04-01T05:20:34.414Z,21.12
2019-04-01T05:23:04.740Z,21.14
2019-04-01T05:25:36.196Z,21.15
2019-04-01T05:28:06.506Z,21.16
2019-04-01T05:30:37.791Z,21.16
2019-04-01T05:33:08.108Z,21.16
2019-04-01T05:35:38.443Z,21.15
2019-04-01T05:38:08.712Z,21.20
2019-04-01T05:40:38.946Z,21.20
2019-04-01T05:43:09.152Z,21.19
2019-04-01T05:45:41.722Z,21.20
2019-04-01T05:48:14.005Z,21.22
2019-04-01T05:50:44.310Z,21.24
2019-04-01T05:53:14.643Z,21.22
2019-04-01T05:55:44.935Z,21.23
2019-04-01T05:58:15.219Z,21.24
2019-04-01T06:00:50.100Z,21.26
2019-04-01T06:03:22.462Z,21.26
2019-04-01T06:05:53.188Z,21.26
2019-04-01T06:08:23.541Z,21.27
2019-04-01T06:10:54.196Z,21.31
2019-04-01T06:13:24.420Z,21.31
2019-04-01T06:15:55.170Z,21.29
2019-04-01T06:18:25.492Z,21.33
2019-04-01T06:20:55.819Z,21.34
2019-04-01T06:23:26.109Z,21.34
2019-04-01T06:25:56.374Z,21.34
2019-04-01T06:28:26.682Z,21.35
2019-04-01T06:30:56.967Z,21.36
2019-04-01T06:33:27.244Z,21.38
2019-04-01T06:35:57.573Z,21.36
2019-04-01T06:38:28.165Z,21.36
2019-04-01T06:40:58.496Z,21.38
2019-04-01T06:43:28.833Z,21.39
2019-04-01T06:45:59.114Z,21.37
2019-04-01T06:48:29.826Z,21.38
2019-04-01T06:51:00.082Z,21.40
2019-04-01T06:53:32.730Z,21.40
2019-04-01T06:56:03.277Z,21.38
2019-04-01T06:58:33.577Z,21.39
2019-04-01T07:01:03.838Z,21.43
2019-04-01T07:03:34.140Z,21.45
2019-04-01T07:06:04.428Z,21.45
2019-04-01T07:08:34.727Z,21.47
2019-04-01T07:11:05.075Z,21.44
2019-04-01T07:13:35.371Z,21.44
2019-04-01T07:16:15.494Z,21.46
2019-04-01T07:18:37.915Z,21.45
2019-04-01T07:21:08.249Z,21.42
2019-04-01T07:23:38.573Z,21.47
2019-04-01T07:26:09.907Z,21.45
2019-04-01T07:28:40.181Z,21.47
2019-04-01T07:31:10.493Z,21.47
2019-04-01T07:33:40.754Z,21.46
2019-04-01T07:36:13.038Z,21.45
2019-04-01T07:38:43.380Z,21.48
2019-04-01T07:41:13.688Z,21.47
2019-04-01T07:43:43.954Z,21.45
2019-04-01T07:46:14.302Z,21.49
2019-04-01T07:48:44.661Z,21.50
2019-04-01T07:51:15.070Z,21.47
2019-04-01T07:53:45.478Z,21.48
2019-04-01T07:56:17.703Z,21.48
2019-04-01T07:58:48.011Z,21.49
2019-04-01T08:01:18.360Z,21.51
2019-04-01T08:03:48.679Z,21.53
2019-04-01T08:06:18.930Z,21.55
2019-04-01T08:08:49.291Z,21.54
2019-04-01T08:11:19.623Z,21.53
2019-04-01T08:13:49.940Z,21.55
2019-04-01T08:16:23.506Z,21.59
2019-04-01T08:18:53.883Z,21.58
2019-04-01T08:21:25.135Z,21.53
2019-04-01T08:23:55.441Z,21.54
2019-04-01T08:26:25.662Z,21.52
2019-04-01T08:28:55.973Z,21.56
2019-04-01T08:31:26.291Z,21.50
2019-04-01T08:33:56.577Z,21.55
2019-04-01T08:36:26.779Z,21.57
2019-04-01T08:38:57.034Z,21.53
2019-04-01T08:41:27.284Z,21.55
2019-04-01T08:43:57.603Z,21.57
2019-04-01T08:46:27.868Z,21.59
2019-04-01T08:48:58.210Z,21.55
2019-04-01T08:51:28.523Z,21.57
2019-04-01T08:53:58.831Z,21.54
2019-04-01T08:56:29.469Z,21.55
2019-04-01T08:58:59.827Z,21.53
2019-04-01T09:01:35.389Z,21.52
2019-04-01T09:04:03.220Z,21.51
2019-04-01T09:06:33.701Z,21.54
2019-04-01T09:09:05.779Z,21.56
2019-04-01T09:11:38.325Z,21.56
2019-04-01T09:14:08.310Z,21.58
2019-04-01T09:16:39.001Z,21.57
2019-04-01T09:19:11.902Z,21.54
2019-04-01T09:21:42.218Z,21.55
2019-04-01T09:24:12.493Z,21.54
2019-04-01T09:26:43.753Z,21.58
2019-04-01T09:29:14.060Z,21.58
2019-04-01T09:31:44.411Z,21.57
2019-04-01T09:34:14.790Z,21.59
2019-04-01T09:36:45.063Z,21.59
2019-04-01T09:39:15.363Z,21.61
2019-04-01T09:41:45.649Z,21.56
2019-04-01T09:44:16.472Z,21.56
2019-04-01T09:46:49.016Z,21.59
2019-04-01T09:49:18.832Z,21.62
2019-04-01T09:51:49.343Z,21.60
2019-04-01T09:54:19.831Z,21.62
2019-04-01T09:56:50.144Z,21.61
2019-04-01T09:59:20.423Z,21.61
2019-04-01T10:01:50.811Z,21.63
2019-04-01T10:04:21.098Z,21.62
2019-04-01T10:06:51.372Z,21.61
2019-04-01T10:09:21.652Z,21.63
2019-04-01T10:11:51.997Z,21.60
2019-04-01T10:14:22.251Z,21.61
2019-04-01T10:16:53.674Z,21.62
2019-04-01T10:19:23.939Z,21.64
2019-04-01T10:21:55.462Z,21.62
2019-04-01T10:24:25.781Z,21.63
2019-04-01T10:26:56.038Z,21.61
2019-04-01T10:29:26.363Z,21.65
2019-04-01T10:31:56.637Z,21.64
2019-04-01T10:34:26.953Z,21.65
2019-04-01T10:36:57.201Z,21.65
2019-04-01T10:39:27.528Z,21.63
2019-04-01T10:41:57.813Z,21.65
2019-04-01T10:44:31.235Z,21.68
2019-04-01T10:47:01.862Z,21.70
2019-04-01T10:49:32.359Z,21.69
2019-04-01T10:52:06.052Z,21.69
2019-04-01T10:54:36.382Z,21.69
2019-04-01T10:57:06.667Z,21.70
2019-04-01T10:59:36.963Z,21.68
2019-04-01T11:02:07.457Z,21.70
2019-04-01T11:04:37.872Z,21.71
2019-04-01T11:07:08.352Z,21.70
2019-04-01T11:09:38.957Z,21.71
2019-04-01T11:12:10.417Z,21.71
2019-04-01T11:14:40.618Z,21.73
2019-04-01T11:17:10.993Z,21.73
2019-04-01T11:19:41.279Z,21.72
2019-04-01T11:22:11.598Z,21.71
2019-04-01T11:24:41.907Z,21.73
2019-04-01T11:27:12.262Z,21.71
2019-04-01T11:29:43.038Z,21.73
2019-04-01T11:32:13.818Z,21.72
2019-04-01T11:34:44.356Z,21.71
2019-04-01T11:37:17.301Z,21.73
2019-04-01T11:39:47.718Z,21.72
2019-04-01T11:42:18.196Z,21.75
2019-04-01T11:44:48.516Z,21.74
2019-04-01T11:47:21.957Z,21.75
2019-04-01T11:49:50.837Z,21.72
2019-04-01T11:52:21.193Z,21.74
2019-04-01T11:54:51.506Z,21.74
2019-04-01T11:57:21.783Z,21.76
2019-04-01T11:59:52.055Z,21.74
2019-04-01T12:02:22.263Z,21.75
2019-04-01T12:04:52.785Z,21.76
2019-04-01T12:07:23.588Z,21.75
2019-04-01T12:09:55.307Z,21.76
2019-04-01T12:12:26.649Z,21.76
2019-04-01T12:14:57.033Z,21.76
2019-04-01T12:17:27.376Z,21.76
2019-04-01T12:19:57.820Z,21.76
2019-04-01T12:22:30.385Z,21.75
2019-04-01T12:25:02.999Z,21.76
2019-04-01T12:27:33.329Z,21.73
2019-04-01T12:30:04.979Z,21.72
2019-04-01T12:32:37.953Z,21.72
2019-04-01T12:35:08.338Z,21.72
2019-04-01T12:37:38.861Z,21.75
2019-04-01T12:40:11.328Z,21.72
2019-04-01T12:42:41.591Z,21.74
2019-04-01T12:45:11.861Z,21.74
2019-04-01T12:47:43.397Z,21.73
2019-04-01T12:50:14.036Z,21.74
2019-04-01T12:52:44.341Z,21.72
2019-04-01T12:55:14.656Z,21.72
2019-04-01T12:57:48.232Z,21.72
2019-04-01T13:00:16.974Z,21.73
2019-04-01T13:02:47.253Z,21.73
2019-04-01T13:05:17.490Z,21.72
2019-04-01T13:07:47.934Z,21.73
2019-04-01T13:10:18.200Z,21.73
2019-04-01T13:12:48.590Z,21.73
2019-04-01T13:15:18.973Z,21.73
2019-04-01T13:17:51.952Z,21.74
2019-04-01T13:20:36.700Z,21.72
2019-04-01T13:22:54.331Z,21.74
2019-04-01T13:25:25.333Z,21.72
2019-04-01T13:27:57.125Z,21.72
2019-04-01T13:30:28.396Z,21.72
2019-04-01T13:32:58.636Z,21.73
2019-04-01T13:35:29.033Z,21.71
2019-04-01T13:38:00.369Z,21.72
2019-04-01T13:40:30.654Z,21.71
2019-04-01T13:43:04.399Z,21.70
2019-04-01T13:45:33.032Z,21.69
2019-04-01T13:48:03.377Z,21.70
2019-04-01T13:50:33.639Z,21.72
2019-04-01T13:53:04.392Z,21.71
2019-04-01T13:55:34.661Z,21.70
2019-04-01T13:58:05.499Z,21.69
2019-04-01T14:00:35.756Z,21.71
2019-04-01T14:03:06.077Z,21.70
2019-04-01T14:05:37.448Z,21.70
2019-04-01T14:08:07.776Z,21.71
2019-04-01T14:10:40.562Z,21.70
2019-04-01T14:13:10.193Z,21.69
2019-04-01T14:15:40.470Z,21.70
2019-04-01T14:18:10.772Z,21.70
2019-04-01T14:20:41.087Z,21.70
2019-04-01T14:23:11.379Z,21.67
2019-04-01T14:25:42.286Z,21.66
2019-04-01T14:28:13.762Z,21.68
2019-04-01T14:30:44.470Z,21.67
2019-04-01T14:33:14.806Z,21.67
2019-04-01T14:35:45.483Z,21.66
2019-04-01T14:38:15.767Z,21.66
2019-04-01T14:40:46.237Z,21.65
2019-04-01T14:43:16.659Z,21.63
2019-04-01T14:45:46.982Z,21.63
2019-04-01T14:48:17.518Z,21.60
2019-04-01T14:50:48.852Z,21.61
2019-04-01T14:53:19.234Z,21.59
2019-04-01T14:55:52.507Z,21.59
2019-04-01T14:58:23.977Z,21.59
2019-04-01T15:00:54.465Z,21.57
2019-04-01T15:03:27.180Z,21.56
2019-04-01T15:05:57.504Z,21.54
2019-04-01T15:08:28.593Z,21.54
2019-04-01T15:10:58.920Z,21.53
2019-04-01T15:13:29.569Z,21.51
2019-04-01T15:16:00.051Z,21.52
2019-04-01T15:18:34.284Z,21.51
2019-04-01T15:21:04.600Z,21.52
2019-04-01T15:23:35.816Z,21.53
2019-04-01T15:26:08.245Z,21.52
2019-04-01T15:28:38.622Z,21.51
2019-04-01T15:31:08.926Z,21.52
2019-04-01T15:33:39.199Z,21.52
2019-04-01T15:36:09.521Z,21.49
2019-04-01T15:38:39.812Z,21.49
2019-04-01T15:41:10.273Z,21.48
2019-04-01T15:43:41.058Z,21.46
2019-04-01T15:46:11.496Z,21.44
2019-04-01T15:48:41.799Z,21.42
2019-04-01T15:51:12.146Z,21.42
2019-04-01T15:53:42.521Z,21.42
2019-04-01T15:56:12.837Z,21.42
2019-04-01T15:58:43.204Z,21.42
2019-04-01T16:01:13.593Z,21.39
2019-04-01T16:03:43.900Z,21.39
2019-04-01T16:06:14.158Z,21.39
2019-04-01T16:08:44.445Z,21.39
2019-04-01T16:11:14.827Z,21.36
2019-04-01T16:13:45.199Z,21.37
2019-04-01T16:16:15.502Z,21.36
2019-04-01T16:18:45.834Z,21.35
2019-04-01T16:21:16.134Z,21.35
2019-04-01T16:23:47.313Z,21.32
2019-04-01T16:26:18.018Z,21.30
2019-04-01T16:28:50.979Z,21.29
2019-04-01T16:31:21.255Z,21.30
2019-04-01T16:33:51.591Z,21.27
2019-04-01T16:36:21.802Z,21.27
2019-04-01T16:38:52.146Z,21.27
2019-04-01T16:41:22.431Z,21.25
2019-04-01T16:43:52.750Z,21.25
2019-04-01T16:46:23.240Z,21.25
2019-04-01T16:48:54.652Z,21.24
2019-04-01T16:51:25.029Z,21.24
2019-04-01T16:53:56.260Z,21.21
2019-04-01T16:56:26.694Z,21.19
2019-04-01T16:58:57.299Z,21.19
2019-04-01T17:01:27.744Z,21.15
2019-04-01T17:03:58.058Z,21.15
2019-04-01T17:06:28.409Z,21.14
2019-04-01T17:08:58.641Z,21.14
2019-04-01T17:11:30.881Z,21.14
2019-04-01T17:14:01.342Z,21.10
2019-04-01T17:16:35.281Z,21.11
2019-04-01T17:19:07.962Z,21.09
2019-04-01T17:21:38.432Z,21.08
2019-04-01T17:24:08.870Z,21.10
2019-04-01T17:27:00.329Z,21.11
2019-04-01T17:29:31.913Z,21.14
2019-04-01T17:32:02.382Z,21.14
2019-04-01T17:34:32.647Z,21.14
2019-04-01T17:37:02.942Z,21.13
2019-04-01T17:39:34.187Z,21.11
2019-04-01T17:42:05.014Z,21.11
2019-04-01T17:44:35.490Z,21.12
2019-04-01T17:47:06.333Z,21.12
2019-04-01T17:49:36.869Z,21.10
2019-04-01T17:52:07.198Z,21.11
2019-04-01T17:54:40.028Z,21.10
2019-04-01T17:57:11.772Z,21.13
2019-04-01T17:59:42.062Z,21.12
2019-04-01T18:02:13.599Z,21.20
2019-04-01T18:04:46.149Z,21.23
2019-04-01T18:07:17.636Z,21.22
2019-04-01T18:09:48.898Z,21.24
2019-04-01T18:12:19.252Z,21.24
2019-04-01T18:14:49.614Z,21.26
2019-04-01T18:17:23.310Z,21.27
2019-04-01T18:19:53.628Z,21.30
2019-04-01T18:22:24.027Z,21.28
2019-04-01T18:24:54.377Z,21.30
2019-04-01T18:27:24.642Z,21.31
2019-04-01T18:29:55.030Z,21.29
2019-04-01T18:32:27.998Z,21.29
2019-04-01T18:34:58.338Z,21.30
2019-04-01T18:37:29.149Z,21.31
2019-04-01T18:39:59.752Z,21.30
2019-04-01T18:42:33.616Z,21.29
2019-04-01T18:45:04.466Z,21.30
2019-04-01T18:47:34.777Z,21.30
2019-04-01T18:50:05.231Z,21.29
2019-04-01T18:52:35.602Z,21.30
2019-04-01T18:55:10.370Z,21.31
2019-04-01T18:57:40.815Z,21.30
2019-04-01T19:00:12.056Z,21.34
2019-04-01T19:02:43.474Z,21.33
2019-04-01T19:05:13.802Z,21.34
2019-04-01T19:07:44.108Z,21.34
2019-04-01T19:10:14.494Z,21.36
2019-04-01T19:12:43.190Z,21.37
2019-04-01T19:15:15.184Z,21.37
2019-04-01T19:17:45.517Z,21.38
2019-04-01T19:20:15.796Z,21.38
2019-04-01T19:22:47.933Z,21.39
2019-04-01T19:25:18.222Z,21.39
2019-04-01T19:27:49.223Z,21.40
2019-04-01T19:30:20.500Z,21.41
2019-04-01T19:32:50.808Z,21.42
2019-04-01T19:35:21.128Z,21.44
2019-04-01T19:37:51.554Z,21.45
2019-04-01T19:40:23.110Z,21.48
2019-04-01T19:42:53.925Z,21.50
2019-04-01T19:45:24.294Z,21.52
2019-04-01T19:47:57.154Z,21.53
2019-04-01T19:50:26.620Z,21.55
2019-04-01T19:52:56.910Z,21.56
2019-04-01T19:55:27.325Z,21.56
2019-04-01T19:57:57.627Z,21.58
2019-04-01T20:00:29.644Z,21.60
2019-04-01T20:03:00.122Z,21.60
2019-04-01T20:05:31.171Z,21.62
2019-04-01T20:08:01.811Z,21.64
2019-04-01T20:10:32.069Z,21.65
2019-04-01T20:13:02.464Z,21.65
2019-04-01T20:15:32.803Z,21.68
2019-04-01T20:18:03.149Z,21.68
2019-04-01T20:20:33.485Z,21.69
2019-04-01T20:23:05.443Z,21.69
2019-04-01T20:25:35.750Z,21.70
2019-04-01T20:28:06.247Z,21.70
2019-04-01T20:30:37.949Z,21.72
2019-04-01T20:33:17.630Z,21.72
2019-04-01T20:35:40.630Z,21.73
2019-04-01T20:38:11.251Z,21.74
2019-04-01T20:40:41.831Z,21.76
2019-04-01T20:43:12.148Z,21.76
2019-04-01T20:45:42.916Z,21.77
2019-04-01T20:48:15.311Z,21.77
2019-04-01T20:50:45.657Z,21.77
2019-04-01T20:53:16.015Z,21.80
2019-04-01T20:55:48.467Z,21.81
2019-04-01T20:58:19.660Z,21.82
2019-04-01T21:00:50.220Z,21.83
2019-04-01T21:03:20.812Z,21.85
2019-04-01T21:05:51.106Z,21.86
2019-04-01T21:08:21.418Z,21.86
2019-04-01T21:10:51.753Z,21.87
2019-04-01T21:13:22.055Z,21.88
2019-04-01T21:15:52.319Z,21.90
2019-04-01T21:18:22.625Z,21.90
2019-04-01T21:20:52.875Z,21.91
2019-04-01T21:23:23.054Z,21.89
2019-04-01T21:25:53.518Z,21.90
2019-04-01T21:28:24.943Z,21.92
2019-04-01T21:30:55.796Z,21.93
2019-04-01T21:33:26.225Z,21.95
2019-04-01T21:35:56.571Z,21.99
2019-04-01T21:38:26.860Z,21.99
2019-04-01T21:40:57.128Z,21.99
2019-04-01T21:43:27.400Z,21.99
2019-04-01T21:45:57.729Z,21.97
2019-04-01T21:48:27.956Z,21.98
2019-04-01T21:50:58.494Z,22.00
2019-04-01T21:53:28.758Z,22.03
2019-04-01T21:55:59.067Z,22.03
2019-04-01T21:58:29.307Z,22.04
2019-04-01T22:01:00.524Z,22.05
2019-04-01T22:03:32.318Z,22.07
2019-04-01T22:06:02.668Z,22.08
2019-04-01T22:08:32.967Z,22.08
2019-04-01T22:11:03.484Z,22.06
2019-04-01T22:13:33.805Z,22.07
2019-04-01T22:16:04.069Z,22.08
2019-04-01T22:18:34.443Z,22.08
2019-04-01T22:21:04.706Z,22.07
2019-04-01T22:23:35.525Z,22.10
2019-04-01T22:26:05.800Z,22.11
2019-04-01T22:28:36.115Z,22.12
2019-04-01T22:31:06.426Z,22.12
2019-04-01T22:33:35.083Z,22.13
2019-04-01T22:36:05.573Z,22.15
2019-04-01T22:38:35.873Z,22.13
2019-04-01T22:41:06.243Z,22.15
2019-04-01T22:43:36.563Z,22.15
2019-04-01T22:46:06.879Z,22.17
2019-04-01T22:48:37.148Z,22.18
2019-04-01T22:51:08.657Z,22.17
2019-04-01T22:53:41.448Z,22.17
2019-04-01T22:56:11.740Z,22.18
2019-04-01T22:58:43.559Z,22.19
2019-04-01T23:01:13.791Z,22.19
2019-04-01T23:03:44.057Z,22.18
2019-04-01T23:06:14.325Z,22.21
2019-04-01T23:08:45.335Z,22.21
2019-04-01T23:11:15.633Z,22.21
2019-04-01T23:13:45.863Z,22.21
2019-04-01T23:16:16.206Z,22.20
2019-04-01T23:18:46.500Z,22.21
2019-04-01T23:21:16.734Z,22.20
2019-04-01T23:23:47.003Z,22.21
2019-04-01T23:26:17.301Z,22.20
2019-04-01T23:28:48.574Z,22.21
2019-04-01T23:31:18.858Z,22.22
2019-04-01T23:33:49.567Z,22.20
2019-04-01T23:36:20.193Z,22.20
2019-04-01T23:38:53.557Z,22.22
2019-04-01T23:41:23.840Z,22.22
2019-04-01T23:43:54.208Z,22.22
2019-04-01T23:46:25.372Z,22.21
2019-04-01T23:48:55.637Z,22.20
2019-04-01T23:51:25.912Z,22.21
2019-04-01T23:53:56.246Z,22.23
2019-04-01T23:56:29.656Z,22.21
2019-04-01T23:58:59.907Z,22.23
